createdAt,value
2023-03-13T00:01:23.274Z,98664.48
2023-03-13T00:07:38.076Z,98665.93
2023-03-13T00:14:15.663Z,98668.34
2023-03-13T00:28:19.864Z,98681.30
2023-03-13T00:34:23.898Z,98664.96
2023-03-13T00:40:27.280Z,98653.20
2023-03-13T00:46:30.805Z,98634.58
2023-03-13T00:52:33.777Z,98629.77
2023-03-13T00:58:40.808Z,98629.82
2023-03-13T01:04:44.039Z,98622.14
2023-03-13T01:10:47.086Z,98625.05
2023-03-13T01:16:51.612Z,98620.95
2023-03-13T01:22:55.180Z,98608.14
2023-03-13T01:28:58.318Z,98598.00
2023-03-13T01:35:04.734Z,98596.12
2023-03-13T01:41:12.420Z,98595.84
2023-03-13T01:47:15.887Z,98595.70
2023-03-13T01:53:46.818Z,98598.59
2023-03-13T01:59:52.024Z,98600.57
2023-03-13T02:05:55.799Z,98612.09
2023-03-13T02:12:09.798Z,98620.23
2023-03-13T02:18:13.256Z,98619.88
2023-03-13T02:24:28.935Z,98625.41
2023-03-13T02:30:32.153Z,98633.06
2023-03-13T02:36:39.396Z,98642.46
2023-03-13T02:42:45.052Z,98651.08
2023-03-13T02:48:53.812Z,98665.05
2023-03-13T02:55:05.793Z,98669.11
2023-03-13T03:01:09.125Z,98675.52
2023-03-13T03:07:14.165Z,98682.55
2023-03-13T03:13:17.821Z,98678.66
2023-03-13T03:19:21.107Z,98673.77
2023-03-13T03:25:24.137Z,98674.46
2023-03-13T03:31:27.488Z,98674.30
2023-03-13T03:37:32.770Z,98669.35
2023-03-13T03:43:36.567Z,98670.48
2023-03-13T03:49:41.073Z,98667.32
2023-03-13T03:55:45.685Z,98675.19
2023-03-13T04:01:49.090Z,98678.69
2023-03-13T04:07:57.707Z,98675.69
2023-03-13T04:14:01.132Z,98676.41
2023-03-13T04:20:07.444Z,98679.29
2023-03-13T04:26:10.442Z,98679.25
2023-03-13T04:32:15.413Z,98683.91
2023-03-13T04:38:37.116Z,98682.11
2023-03-13T04:44:49.163Z,98674.97
2023-03-13T04:51:09.710Z,98672.73
2023-03-13T04:57:31.078Z,98674.90
2023-03-13T05:03:51.212Z,98673.39
2023-03-13T05:10:14.558Z,98673.08
2023-03-13T05:16:38.702Z,98667.46
2023-03-13T05:23:01.599Z,98663.68
2023-03-13T05:29:23.388Z,98660.32
2023-03-13T05:35:32.192Z,98649.10
2023-03-13T05:41:54.212Z,98639.34
2023-03-13T05:48:15.986Z,98634.73
2023-03-13T05:54:51.124Z,98633.65
2023-03-13T06:01:09.666Z,98638.45
2023-03-13T06:07:20.920Z,98631.84
2023-03-13T06:13:24.476Z,98628.54
2023-03-13T06:19:30.092Z,98623.67
2023-03-13T06:25:34.831Z,98627.27
2023-03-13T06:31:37.956Z,98624.99
2023-03-13T06:37:41.100Z,98623.06
2023-03-13T06:43:44.363Z,98618.92
2023-03-13T06:49:47.262Z,98616.06
2023-03-13T06:55:50.216Z,98616.47
2023-03-13T07:01:53.330Z,98610.29
2023-03-13T07:07:56.461Z,98606.27
2023-03-13T07:14:15.168Z,98601.48
2023-03-13T07:20:19.662Z,98604.45
2023-03-13T07:26:22.610Z,98608.91
2023-03-13T07:32:25.531Z,98610.91
2023-03-13T07:38:28.475Z,98604.90
2023-03-13T07:44:31.389Z,98592.56
2023-03-13T07:50:34.566Z,98581.90
2023-03-13T07:56:37.613Z,98575.52
2023-03-13T08:02:40.697Z,98568.05
2023-03-13T08:08:44.235Z,98566.67
2023-03-13T08:14:47.257Z,98567.80
2023-03-13T08:20:52.436Z,98562.02
2023-03-13T08:26:55.511Z,98562.60
2023-03-13T08:32:58.589Z,98555.65
2023-03-13T08:39:05.161Z,98546.10
2023-03-13T08:45:09.688Z,98538.33
2023-03-13T08:51:14.619Z,98530.67
2023-03-13T08:57:17.909Z,98521.16
2023-03-13T09:03:20.956Z,98513.55
2023-03-13T09:09:24.718Z,98507.80
2023-03-13T09:15:28.039Z,98504.20
2023-03-13T09:21:33.184Z,98495.27
2023-03-13T09:27:36.288Z,98492.59
2023-03-13T09:33:39.598Z,98488.59
2023-03-13T09:39:42.606Z,98484.45
2023-03-13T09:45:49.629Z,98486.38
2023-03-13T09:52:00.008Z,98479.05
2023-03-13T09:58:16.566Z,98469.94
2023-03-13T10:04:22.556Z,98461.92
2023-03-13T10:10:59.980Z,98451.02
2023-03-13T10:17:13.711Z,98432.09
2023-03-13T10:23:21.702Z,98429.73
2023-03-13T10:29:27.114Z,98428.05
2023-03-13T10:35:37.175Z,98423.88
2023-03-13T10:41:40.109Z,98408.10
2023-03-13T10:47:43.102Z,98403.31
2023-03-13T10:53:46.050Z,98394.77
2023-03-13T10:59:50.941Z,98385.36
2023-03-13T11:05:55.755Z,98376.67
2023-03-13T11:12:14.979Z,98371.47
2023-03-13T11:18:23.512Z,98367.33
2023-03-13T11:24:51.311Z,98355.70
2023-03-13T11:31:00.158Z,98352.05
2023-03-13T11:37:16.091Z,98342.13
2023-03-13T11:43:46.766Z,98333.92
2023-03-13T11:50:07.580Z,98323.40
2023-03-13T11:56:25.650Z,98319.77
2023-03-13T12:02:36.266Z,98300.92
2023-03-13T12:08:43.036Z,98301.77
2023-03-13T12:15:19.095Z,98289.75
2023-03-13T12:21:30.675Z,98274.67
2023-03-13T12:27:38.364Z,98249.63
2023-03-13T12:34:16.567Z,98246.41
2023-03-13T12:40:39.003Z,98228.73
2023-03-13T12:46:57.786Z,98215.97
2023-03-13T12:53:30.973Z,98208.20
2023-03-13T13:00:05.698Z,98207.14
2023-03-13T13:06:11.897Z,98203.23
2023-03-13T13:12:25.925Z,98199.48
2023-03-13T13:18:33.384Z,98194.70
2023-03-13T13:24:48.793Z,98202.83
2023-03-13T13:30:55.659Z,98199.95
2023-03-13T13:37:19.923Z,98204.32
2023-03-13T13:43:24.755Z,98206.89
2023-03-13T13:49:33.091Z,98210.16
2023-03-13T13:55:44.082Z,98207.85
2023-03-13T14:02:35.496Z,98214.70
2023-03-13T14:08:41.977Z,98204.81
2023-03-13T14:14:45.073Z,98199.39
2023-03-13T14:21:14.170Z,98204.95
2023-03-13T14:27:18.948Z,98195.58
2023-03-13T14:33:22.468Z,98196.35
2023-03-13T14:39:31.316Z,98190.94
2023-03-13T14:45:37.031Z,98187.88
2023-03-13T14:51:40.339Z,98177.54
2023-03-13T14:58:00.113Z,98179.82
2023-03-13T15:04:02.987Z,98174.49
2023-03-13T15:10:27.178Z,98167.76
2023-03-13T15:16:30.246Z,98162.98
2023-03-13T15:22:40.926Z,98155.27
2023-03-13T15:28:43.939Z,98158.08
2023-03-13T15:34:46.892Z,98154.99
2023-03-13T15:40:50.139Z,98151.84
2023-03-13T15:46:53.366Z,98142.34
2023-03-13T15:53:00.840Z,98144.04
2023-03-13T15:59:12.181Z,98138.55
2023-03-13T16:05:15.636Z,98132.02
2023-03-13T16:11:18.701Z,98134.34
2023-03-13T16:17:27.061Z,98133.76
2023-03-13T16:23:30.365Z,98138.63
2023-03-13T16:29:33.271Z,98144.41
2023-03-13T16:35:36.719Z,98138.35
2023-03-13T16:41:40.281Z,98135.94
2023-03-13T16:47:44.494Z,98136.73
2023-03-13T16:53:49.366Z,98140.21
2023-03-13T16:59:52.472Z,98134.71
2023-03-13T17:06:01.099Z,98127.70
2023-03-13T17:12:04.346Z,98123.30
2023-03-13T17:18:10.318Z,98116.02
2023-03-13T17:24:13.372Z,98106.52
2023-03-13T17:30:19.157Z,98103.48
2023-03-13T17:36:27.353Z,98101.44
2023-03-13T17:42:30.567Z,98093.29
2023-03-13T17:48:33.705Z,98083.59
2023-03-13T17:54:36.782Z,98070.30
2023-03-13T18:00:46.756Z,98066.84
2023-03-13T18:06:53.206Z,98058.38
2023-03-13T18:12:59.595Z,98053.85
2023-03-13T18:19:05.476Z,98046.27
2023-03-13T18:25:10.381Z,98032.63
2023-03-13T18:31:13.495Z,98018.21
2023-03-13T18:37:24.890Z,98001.09
2023-03-13T18:43:28.239Z,97986.57
2023-03-13T18:49:31.714Z,97974.16
2023-03-13T18:55:35.117Z,97955.31
2023-03-13T19:01:40.797Z,97931.20
2023-03-13T19:07:44.763Z,97926.90
2023-03-13T19:13:48.468Z,97937.28
2023-03-13T19:19:57.093Z,97927.23
2023-03-13T19:26:11.187Z,97923.52
2023-03-13T19:32:19.461Z,97914.58
2023-03-13T19:38:22.553Z,97910.63
2023-03-13T19:44:25.587Z,97907.63
2023-03-13T19:50:29.783Z,97913.86
2023-03-13T19:56:33.814Z,97918.48
2023-03-13T20:02:37.831Z,97911.70
2023-03-13T20:08:40.981Z,97913.33
2023-03-13T20:14:44.705Z,97915.27
2023-03-13T20:20:48.977Z,97921.16
2023-03-13T20:26:52.399Z,97906.05
2023-03-13T20:32:59.935Z,97891.16
2023-03-13T20:39:07.290Z,97889.52
2023-03-13T20:45:14.314Z,97885.11
2023-03-13T20:51:17.508Z,97876.66
2023-03-13T20:57:22.144Z,97877.71
2023-03-13T21:03:26.754Z,97868.45
2023-03-13T21:09:37.013Z,97867.94
2023-03-13T21:15:41.318Z,97855.42
2023-03-13T21:21:51.981Z,97848.80
2023-03-13T21:27:58.714Z,97840.88
2023-03-13T21:34:02.530Z,97821.60
2023-03-13T21:40:08.885Z,97816.75
2023-03-13T21:46:14.490Z,97812.49
2023-03-13T21:52:19.368Z,97805.52
2023-03-13T21:58:23.201Z,97796.27
2023-03-13T22:04:26.541Z,97784.86
2023-03-13T22:10:29.991Z,97773.23
2023-03-13T22:16:34.359Z,97764.91
2023-03-13T22:22:37.827Z,97764.84
2023-03-13T22:28:41.697Z,97766.27
2023-03-13T22:42:35.295Z,97783.27
2023-03-13T22:49:08.966Z,97774.67
2023-03-13T23:02:56.290Z,97752.23
2023-03-13T23:09:00.566Z,97748.95
2023-03-13T23:15:05.874Z,97742.55
2023-03-13T23:21:15.317Z,97734.88
2023-03-13T23:27:23.601Z,97721.17
2023-03-13T23:33:56.902Z,97707.64
2023-03-13T23:40:06.661Z,97704.88
2023-03-13T23:46:16.590Z,97690.89
2023-03-13T23:52:20.433Z,97679.96
2023-03-13T23:58:23.855Z,97667.59
